sensor_id;sensor_type;location;lat;lon;timestamp;pressure;altitude;pressure_sealevel;temperature;humidity
26087;BME280;13851;43.434;28.338;2023-02-19T00:01:12;99707.81;;;11.90;100.00
26087;BME280;13851;43.434;28.338;2023-02-19T00:03:39;99746.00;;;12.07;100.00
26087;BME280;13851;43.434;28.338;2023-02-19T00:06:07;99795.38;;;12.21;100.00
26087;BME280;13851;43.434;28.338;2023-02-19T00:08:34;99789.25;;;12.41;100.00
26087;BME280;13851;43.434;28.338;2023-02-19T00:11:27;99736.59;;;12.16;100.00
26087;BME280;13851;43.434;28.338;2023-02-19T00:13:54;99744.31;;;12.27;100.00
26087;BME280;13851;43.434;28.338;2023-02-19T00:16:23;99777.22;;;12.42;100.00
26087;BME280;13851;43.434;28.338;2023-02-19T00:18:49;99778.47;;;12.39;100.00
26087;BME280;13851;43.434;28.338;2023-02-19T00:21:16;99793.50;;;12.43;100.00
26087;BME280;13851;43.434;28.338;2023-02-19T00:23:42;99620.56;;;11.28;100.00
26087;BME280;13851;43.434;28.338;2023-02-19T00:26:11;99564.56;;;11.01;100.00
26087;BME280;13851;43.434;28.338;2023-02-19T00:28:38;99794.47;;;12.36;100.00
26087;BME280;13851;43.434;28.338;2023-02-19T00:31:21;99784.81;;;12.18;100.00
26087;BME280;13851;43.434;28.338;2023-02-19T00:33:49;99778.63;;;11.65;100.00
26087;BME280;13851;43.434;28.338;2023-02-19T00:36:15;99786.41;;;12.13;100.00
26087;BME280;13851;43.434;28.338;2023-02-19T00:38:42;99783.13;;;12.03;100.00
26087;BME280;13851;43.434;28.338;2023-02-19T00:41:09;99733.88;;;11.65;100.00
26087;BME280;13851;43.434;28.338;2023-02-19T00:43:53;99817.81;;;11.89;100.00
26087;BME280;13851;43.434;28.338;2023-02-19T00:46:53;99810.69;;;11.94;100.00
26087;BME280;13851;43.434;28.338;2023-02-19T00:49:15;99772.00;;;11.89;100.00
26087;BME280;13851;43.434;28.338;2023-02-19T00:51:41;99714.13;;;11.55;100.00
26087;BME280;13851;43.434;28.338;2023-02-19T00:54:07;99745.88;;;11.79;100.00
26087;BME280;13851;43.434;28.338;2023-02-19T00:56:33;99709.88;;;11.67;100.00
26087;BME280;13851;43.434;28.338;2023-02-19T00:58:58;99704.25;;;11.75;100.00
26087;BME280;13851;43.434;28.338;2023-02-19T01:01:24;99415.47;;;10.08;100.00
26087;BME280;13851;43.434;28.338;2023-02-19T01:03:50;99690.91;;;11.72;100.00
26087;BME280;13851;43.434;28.338;2023-02-19T01:06:17;99735.22;;;12.05;100.00
26087;BME280;13851;43.434;28.338;2023-02-19T01:08:42;99685.59;;;11.85;100.00
26087;BME280;13851;43.434;28.338;2023-02-19T01:11:10;99735.81;;;12.01;100.00
26087;BME280;13851;43.434;28.338;2023-02-19T01:13:36;99701.22;;;11.85;100.00
26087;BME280;13851;43.434;28.338;2023-02-19T01:16:06;99716.13;;;11.97;100.00
26087;BME280;13851;43.434;28.338;2023-02-19T01:18:32;99736.97;;;11.77;100.00
26087;BME280;13851;43.434;28.338;2023-02-19T01:20:58;99764.84;;;12.10;100.00
26087;BME280;13851;43.434;28.338;2023-02-19T01:23:23;99372.13;;;10.12;100.00
26087;BME280;13851;43.434;28.338;2023-02-19T01:25:49;99656.47;;;11.69;100.00
26087;BME280;13851;43.434;28.338;2023-02-19T01:28:14;99689.38;;;11.84;100.00
26087;BME280;13851;43.434;28.338;2023-02-19T01:30:40;99676.22;;;11.43;100.00
26087;BME280;13851;43.434;28.338;2023-02-19T01:33:07;99704.34;;;11.82;100.00
26087;BME280;13851;43.434;28.338;2023-02-19T01:35:33;99706.78;;;11.77;100.00
26087;BME280;13851;43.434;28.338;2023-02-19T01:37:59;99431.41;;;10.05;100.00
26087;BME280;13851;43.434;28.338;2023-02-19T01:40:25;99707.72;;;11.48;100.00
26087;BME280;13851;43.434;28.338;2023-02-19T01:42:51;99707.03;;;11.45;100.00
26087;BME280;13851;43.434;28.338;2023-02-19T01:45:27;99701.66;;;11.52;100.00
26087;BME280;13851;43.434;28.338;2023-02-19T01:48:03;99284.06;;;8.98;100.00
26087;BME280;13851;43.434;28.338;2023-02-19T01:50:35;99640.25;;;11.17;100.00
26087;BME280;13851;43.434;28.338;2023-02-19T01:53:04;99618.13;;;11.04;100.00
26087;BME280;13851;43.434;28.338;2023-02-19T01:55:32;99689.47;;;11.25;100.00
26087;BME280;13851;43.434;28.338;2023-02-19T01:57:59;99650.06;;;11.26;100.00
26087;BME280;13851;43.434;28.338;2023-02-19T02:00:26;99694.16;;;11.61;100.00
26087;BME280;13851;43.434;28.338;2023-02-19T02:02:55;99696.84;;;11.76;100.00
26087;BME280;13851;43.434;28.338;2023-02-19T02:05:48;99692.34;;;11.68;100.00
26087;BME280;13851;43.434;28.338;2023-02-19T02:08:16;99347.91;;;9.50;100.00
26087;BME280;13851;43.434;28.338;2023-02-19T02:11:01;99370.06;;;9.55;100.00
26087;BME280;13851;43.434;28.338;2023-02-19T02:13:27;99667.44;;;11.33;100.00
26087;BME280;13851;43.434;28.338;2023-02-19T02:16:02;99348.00;;;9.27;100.00
26087;BME280;13851;43.434;28.338;2023-02-19T02:27:03;99700.38;;;11.18;100.00
26087;BME280;13851;43.434;28.338;2023-02-19T02:29:57;99673.03;;;11.25;100.00
26087;BME280;13851;43.434;28.338;2023-02-19T02:32:39;99649.53;;;11.01;100.00
26087;BME280;13851;43.434;28.338;2023-02-19T02:35:12;99655.38;;;10.98;100.00
26087;BME280;13851;43.434;28.338;2023-02-19T02:37:44;99330.50;;;8.98;100.00
26087;BME280;13851;43.434;28.338;2023-02-19T02:40:11;99667.75;;;11.24;100.00
26087;BME280;13851;43.434;28.338;2023-02-19T02:42:38;99673.97;;;11.32;100.00
26087;BME280;13851;43.434;28.338;2023-02-19T02:51:00;99717.53;;;11.57;100.00
26087;BME280;13851;43.434;28.338;2023-02-19T02:53:46;99438.38;;;10.07;100.00
26087;BME280;13851;43.434;28.338;2023-02-19T02:56:32;99672.56;;;11.36;100.00
26087;BME280;13851;43.434;28.338;2023-02-19T02:59:00;99689.41;;;11.69;100.00
26087;BME280;13851;43.434;28.338;2023-02-19T03:07:30;99456.59;;;10.45;100.00
26087;BME280;13851;43.434;28.338;2023-02-19T03:09:58;99653.94;;;11.68;100.00
26087;BME280;13851;43.434;28.338;2023-02-19T03:12:28;99675.88;;;11.68;100.00
26087;BME280;13851;43.434;28.338;2023-02-19T03:15:15;99684.75;;;11.70;100.00
26087;BME280;13851;43.434;28.338;2023-02-19T03:18:02;99700.03;;;11.58;100.00
26087;BME280;13851;43.434;28.338;2023-02-19T03:20:51;99698.06;;;11.52;100.00
26087;BME280;13851;43.434;28.338;2023-02-19T03:23:21;99691.72;;;11.87;100.00
26087;BME280;13851;43.434;28.338;2023-02-19T03:26:09;99358.09;;;9.85;100.00
26087;BME280;13851;43.434;28.338;2023-02-19T03:28:37;99730.00;;;11.74;100.00
26087;BME280;13851;43.434;28.338;2023-02-19T03:31:25;99719.22;;;12.09;100.00
26087;BME280;13851;43.434;28.338;2023-02-19T03:33:56;99718.22;;;11.80;100.00
26087;BME280;13851;43.434;28.338;2023-02-19T03:36:34;99717.88;;;11.68;100.00
26087;BME280;13851;43.434;28.338;2023-02-19T03:39:03;99712.44;;;11.54;100.00
26087;BME280;13851;43.434;28.338;2023-02-19T03:41:35;99698.44;;;11.49;100.00
26087;BME280;13851;43.434;28.338;2023-02-19T03:44:31;99716.50;;;11.58;100.00
26087;BME280;13851;43.434;28.338;2023-02-19T03:47:27;99710.22;;;11.64;100.00
26087;BME280;13851;43.434;28.338;2023-02-19T03:50:02;99695.97;;;11.54;100.00
26087;BME280;13851;43.434;28.338;2023-02-19T03:58:13;99714.91;;;11.49;100.00
26087;BME280;13851;43.434;28.338;2023-02-19T04:00:47;99633.25;;;11.00;100.00
26087;BME280;13851;43.434;28.338;2023-02-19T04:03:47;99708.09;;;11.44;100.00
26087;BME280;13851;43.434;28.338;2023-02-19T04:06:23;99661.34;;;11.02;100.00
26087;BME280;13851;43.434;28.338;2023-02-19T04:08:53;99688.91;;;11.15;100.00
26087;BME280;13851;43.434;28.338;2023-02-19T04:11:21;99720.88;;;10.93;100.00
26087;BME280;13851;43.434;28.338;2023-02-19T04:13:55;99644.81;;;10.80;100.00
26087;BME280;13851;43.434;28.338;2023-02-19T04:16:26;99685.34;;;11.00;100.00
26087;BME280;13851;43.434;28.338;2023-02-19T04:18:56;99700.72;;;11.15;100.00
26087;BME280;13851;43.434;28.338;2023-02-19T04:21:23;99745.09;;;11.19;100.00
26087;BME280;13851;43.434;28.338;2023-02-19T04:23:50;99682.31;;;11.09;100.00
26087;BME280;13851;43.434;28.338;2023-02-19T04:26:16;99652.56;;;10.91;100.00
26087;BME280;13851;43.434;28.338;2023-02-19T04:28:43;99646.50;;;10.96;100.00
26087;BME280;13851;43.434;28.338;2023-02-19T04:31:09;99718.97;;;11.53;100.00
26087;BME280;13851;43.434;28.338;2023-02-19T04:33:36;99682.22;;;11.32;100.00
26087;BME280;13851;43.434;28.338;2023-02-19T04:36:01;99411.97;;;9.85;100.00
26087;BME280;13851;43.434;28.338;2023-02-19T04:38:27;99708.94;;;11.81;100.00
26087;BME280;13851;43.434;28.338;2023-02-19T04:40:52;99749.28;;;12.17;100.00
26087;BME280;13851;43.434;28.338;2023-02-19T04:43:19;99747.28;;;11.89;100.00
26087;BME280;13851;43.434;28.338;2023-02-19T04:45:45;99708.91;;;11.60;100.00
26087;BME280;13851;43.434;28.338;2023-02-19T04:48:10;99750.03;;;11.75;100.00
26087;BME280;13851;43.434;28.338;2023-02-19T04:50:38;99763.19;;;11.79;100.00
26087;BME280;13851;43.434;28.338;2023-02-19T04:53:04;99759.59;;;11.93;100.00
26087;BME280;13851;43.434;28.338;2023-02-19T04:55:30;99745.88;;;11.93;100.00
26087;BME280;13851;43.434;28.338;2023-02-19T04:57:56;99748.09;;;12.05;100.00
26087;BME280;13851;43.434;28.338;2023-02-19T05:00:22;99746.88;;;11.92;100.00
26087;BME280;13851;43.434;28.338;2023-02-19T05:02:48;99721.28;;;11.85;100.00
26087;BME280;13851;43.434;28.338;2023-02-19T05:05:13;99743.50;;;11.90;100.00
26087;BME280;13851;43.434;28.338;2023-02-19T05:07:39;99760.66;;;12.14;100.00
26087;BME280;13851;43.434;28.338;2023-02-19T05:10:05;99697.84;;;11.68;100.00
26087;BME280;13851;43.434;28.338;2023-02-19T05:12:30;99780.78;;;12.00;100.00
26087;BME280;13851;43.434;28.338;2023-02-19T05:14:56;99762.56;;;12.35;100.00
26087;BME280;13851;43.434;28.338;2023-02-19T05:17:21;99712.66;;;11.88;100.00
26087;BME280;13851;43.434;28.338;2023-02-19T05:19:47;99737.81;;;11.92;100.00
26087;BME280;13851;43.434;28.338;2023-02-19T05:22:13;99761.72;;;12.34;100.00
26087;BME280;13851;43.434;28.338;2023-02-19T05:24:38;99749.94;;;12.40;100.00
26087;BME280;13851;43.434;28.338;2023-02-19T05:27:04;99814.81;;;12.84;100.00
26087;BME280;13851;43.434;28.338;2023-02-19T05:29:30;99770.53;;;12.72;100.00
26087;BME280;13851;43.434;28.338;2023-02-19T05:31:56;99793.81;;;12.77;100.00
26087;BME280;13851;43.434;28.338;2023-02-19T05:34:22;99790.88;;;12.57;100.00
26087;BME280;13851;43.434;28.338;2023-02-19T05:36:47;99443.75;;;10.45;100.00
26087;BME280;13851;43.434;28.338;2023-02-19T05:39:13;99763.94;;;12.24;100.00
26087;BME280;13851;43.434;28.338;2023-02-19T05:41:38;99806.13;;;12.02;100.00
26087;BME280;13851;43.434;28.338;2023-02-19T05:44:04;99774.41;;;12.14;100.00
26087;BME280;13851;43.434;28.338;2023-02-19T05:46:32;99803.34;;;12.16;100.00
26087;BME280;13851;43.434;28.338;2023-02-19T05:48:58;99819.53;;;12.26;100.00
26087;BME280;13851;43.434;28.338;2023-02-19T05:51:25;99493.81;;;10.39;100.00
26087;BME280;13851;43.434;28.338;2023-02-19T05:53:52;99819.78;;;12.31;100.00
26087;BME280;13851;43.434;28.338;2023-02-19T05:56:23;99485.50;;;10.32;100.00
26087;BME280;13851;43.434;28.338;2023-02-19T05:58:51;99768.84;;;11.92;100.00
26087;BME280;13851;43.434;28.338;2023-02-19T06:01:19;99839.94;;;12.38;100.00
26087;BME280;13851;43.434;28.338;2023-02-19T06:03:45;99792.69;;;12.07;100.00
26087;BME280;13851;43.434;28.338;2023-02-19T06:06:14;99798.47;;;12.33;100.00
26087;BME280;13851;43.434;28.338;2023-02-19T06:08:40;99857.16;;;12.68;100.00
26087;BME280;13851;43.434;28.338;2023-02-19T06:11:05;99560.78;;;11.02;100.00
26087;BME280;13851;43.434;28.338;2023-02-19T06:13:31;99860.59;;;12.70;100.00
26087;BME280;13851;43.434;28.338;2023-02-19T06:15:56;99821.91;;;12.51;100.00
26087;BME280;13851;43.434;28.338;2023-02-19T06:18:22;99825.75;;;12.35;100.00
26087;BME280;13851;43.434;28.338;2023-02-19T06:20:48;99896.31;;;12.70;100.00
26087;BME280;13851;43.434;28.338;2023-02-19T06:23:13;99545.00;;;10.89;100.00
26087;BME280;13851;43.434;28.338;2023-02-19T06:25:40;99812.06;;;12.63;100.00
26087;BME280;13851;43.434;28.338;2023-02-19T06:28:06;99840.69;;;12.90;100.00
26087;BME280;13851;43.434;28.338;2023-02-19T06:30:34;99846.63;;;12.93;100.00
26087;BME280;13851;43.434;28.338;2023-02-19T06:32:59;99842.81;;;13.16;100.00
26087;BME280;13851;43.434;28.338;2023-02-19T06:35:25;99774.63;;;12.83;100.00
26087;BME280;13851;43.434;28.338;2023-02-19T06:37:50;99850.97;;;13.59;100.00
26087;BME280;13851;43.434;28.338;2023-02-19T06:40:16;99861.88;;;13.73;100.00
26087;BME280;13851;43.434;28.338;2023-02-19T06:42:42;99851.25;;;13.70;100.00
26087;BME280;13851;43.434;28.338;2023-02-19T06:45:07;99849.41;;;13.77;100.00
26087;BME280;13851;43.434;28.338;2023-02-19T06:47:33;99789.94;;;13.48;100.00
26087;BME280;13851;43.434;28.338;2023-02-19T06:49:59;99829.44;;;13.69;100.00
26087;BME280;13851;43.434;28.338;2023-02-19T06:52:25;99565.72;;;12.14;100.00
26087;BME280;13851;43.434;28.338;2023-02-19T06:54:51;99904.63;;;14.11;100.00
26087;BME280;13851;43.434;28.338;2023-02-19T06:57:17;99844.16;;;13.89;100.00
26087;BME280;13851;43.434;28.338;2023-02-19T06:59:43;99832.75;;;13.99;100.00
26087;BME280;13851;43.434;28.338;2023-02-19T07:02:11;99870.38;;;14.26;100.00
26087;BME280;13851;43.434;28.338;2023-02-19T07:04:36;99874.03;;;14.40;100.00
26087;BME280;13851;43.434;28.338;2023-02-19T07:07:02;99864.75;;;14.48;100.00
26087;BME280;13851;43.434;28.338;2023-02-19T07:09:28;99793.38;;;14.05;100.00
26087;BME280;13851;43.434;28.338;2023-02-19T07:11:54;99878.81;;;14.73;100.00
26087;BME280;13851;43.434;28.338;2023-02-19T07:14:19;99844.22;;;14.50;100.00
26087;BME280;13851;43.434;28.338;2023-02-19T07:16:46;99912.53;;;14.62;100.00
26087;BME280;13851;43.434;28.338;2023-02-19T07:19:12;99885.16;;;14.67;100.00
26087;BME280;13851;43.434;28.338;2023-02-19T07:21:39;99853.78;;;14.54;100.00
26087;BME280;13851;43.434;28.338;2023-02-19T07:24:07;99894.34;;;14.87;100.00
26087;BME280;13851;43.434;28.338;2023-02-19T07:26:33;99849.78;;;14.70;100.00
26087;BME280;13851;43.434;28.338;2023-02-19T07:29:00;99649.88;;;13.73;100.00
26087;BME280;13851;43.434;28.338;2023-02-19T07:31:26;99869.94;;;14.97;100.00
26087;BME280;13851;43.434;28.338;2023-02-19T07:33:52;99868.25;;;15.03;100.00
26087;BME280;13851;43.434;28.338;2023-02-19T07:36:19;99901.81;;;15.33;100.00
26087;BME280;13851;43.434;28.338;2023-02-19T07:38:46;99566.59;;;13.45;100.00
26087;BME280;13851;43.434;28.338;2023-02-19T07:41:11;99871.88;;;15.37;100.00
26087;BME280;13851;43.434;28.338;2023-02-19T07:43:38;99861.47;;;15.32;100.00
26087;BME280;13851;43.434;28.338;2023-02-19T07:46:09;99906.69;;;15.71;100.00
26087;BME280;13851;43.434;28.338;2023-02-19T07:48:36;99895.84;;;15.63;100.00
26087;BME280;13851;43.434;28.338;2023-02-19T07:51:03;99904.34;;;15.34;100.00
26087;BME280;13851;43.434;28.338;2023-02-19T07:53:29;99780.63;;;14.98;100.00
26087;BME280;13851;43.434;28.338;2023-02-19T07:56:04;99904.78;;;15.25;100.00
26087;BME280;13851;43.434;28.338;2023-02-19T07:58:30;99863.16;;;15.20;100.00
26087;BME280;13851;43.434;28.338;2023-02-19T08:00:56;99850.84;;;15.42;100.00
26087;BME280;13851;43.434;28.338;2023-02-19T08:03:22;99920.97;;;15.68;100.00
26087;BME280;13851;43.434;28.338;2023-02-19T08:05:48;99908.38;;;15.85;100.00
26087;BME280;13851;43.434;28.338;2023-02-19T08:08:18;99876.75;;;15.48;100.00
26087;BME280;13851;43.434;28.338;2023-02-19T08:10:43;99622.16;;;13.88;100.00
26087;BME280;13851;43.434;28.338;2023-02-19T08:13:29;99671.78;;;14.15;100.00
26087;BME280;13851;43.434;28.338;2023-02-19T08:16:08;99903.09;;;15.57;100.00
26087;BME280;13851;43.434;28.338;2023-02-19T08:18:35;99862.97;;;15.41;100.00
26087;BME280;13851;43.434;28.338;2023-02-19T08:21:00;99905.66;;;15.52;100.00
26087;BME280;13851;43.434;28.338;2023-02-19T08:23:27;99914.97;;;15.97;100.00
26087;BME280;13851;43.434;28.338;2023-02-19T08:25:56;99893.72;;;15.98;100.00
26087;BME280;13851;43.434;28.338;2023-02-19T08:28:22;99891.16;;;16.03;100.00
26087;BME280;13851;43.434;28.338;2023-02-19T08:30:48;99947.66;;;16.00;100.00
26087;BME280;13851;43.434;28.338;2023-02-19T08:33:17;99830.84;;;15.80;100.00
26087;BME280;13851;43.434;28.338;2023-02-19T08:35:43;99789.41;;;15.80;100.00
26087;BME280;13851;43.434;28.338;2023-02-19T08:38:10;99901.28;;;16.16;100.00
26087;BME280;13851;43.434;28.338;2023-02-19T08:40:37;99890.59;;;16.32;100.00
26087;BME280;13851;43.434;28.338;2023-02-19T08:43:06;99901.75;;;16.57;100.00
26087;BME280;13851;43.434;28.338;2023-02-19T08:45:32;99941.00;;;16.86;100.00
26087;BME280;13851;43.434;28.338;2023-02-19T08:47:58;99898.75;;;17.04;97.87
26087;BME280;13851;43.434;28.338;2023-02-19T08:50:24;99904.56;;;16.96;95.35
26087;BME280;13851;43.434;28.338;2023-02-19T08:52:50;99896.22;;;17.02;95.28
26087;BME280;13851;43.434;28.338;2023-02-19T08:55:16;99883.53;;;16.88;92.71
26087;BME280;13851;43.434;28.338;2023-02-19T08:57:42;99894.41;;;17.14;91.40
26087;BME280;13851;43.434;28.338;2023-02-19T09:00:08;99563.31;;;15.07;91.74
26087;BME280;13851;43.434;28.338;2023-02-19T09:02:35;99890.97;;;17.19;92.73
26087;BME280;13851;43.434;28.338;2023-02-19T09:05:01;99776.16;;;16.40;91.76
26087;BME280;13851;43.434;28.338;2023-02-19T09:07:26;99940.25;;;17.04;92.98
26087;BME280;13851;43.434;28.338;2023-02-19T09:09:53;99829.47;;;16.54;93.28
26087;BME280;13851;43.434;28.338;2023-02-19T09:12:18;99887.94;;;17.27;93.16
26087;BME280;13851;43.434;28.338;2023-02-19T09:14:45;99868.63;;;17.21;92.18
26087;BME280;13851;43.434;28.338;2023-02-19T09:17:11;99822.91;;;17.11;90.74
26087;BME280;13851;43.434;28.338;2023-02-19T09:19:36;99875.88;;;17.40;91.20
26087;BME280;13851;43.434;28.338;2023-02-19T09:22:03;99863.56;;;17.61;89.31
26087;BME280;13851;43.434;28.338;2023-02-19T09:24:29;99868.56;;;17.52;89.80
26087;BME280;13851;43.434;28.338;2023-02-19T09:26:54;99882.22;;;17.47;89.81
26087;BME280;13851;43.434;28.338;2023-02-19T09:29:23;99837.91;;;17.47;89.38
26087;BME280;13851;43.434;28.338;2023-02-19T09:31:49;99846.59;;;17.76;88.81
26087;BME280;13851;43.434;28.338;2023-02-19T09:34:14;99925.75;;;17.90;87.95
26087;BME280;13851;43.434;28.338;2023-02-19T09:36:40;99892.81;;;18.00;89.22
26087;BME280;13851;43.434;28.338;2023-02-19T09:39:07;99890.91;;;18.19;87.71
26087;BME280;13851;43.434;28.338;2023-02-19T09:41:37;99896.00;;;18.22;87.56
26087;BME280;13851;43.434;28.338;2023-02-19T09:44:05;99840.75;;;18.39;87.31
26087;BME280;13851;43.434;28.338;2023-02-19T09:46:48;99565.59;;;17.35;83.36
26087;BME280;13851;43.434;28.338;2023-02-19T09:49:18;99662.59;;;18.37;97.22
26087;BME280;13851;43.434;28.338;2023-02-19T09:51:50;99856.91;;;20.03;82.13
26087;BME280;13851;43.434;28.338;2023-02-19T09:54:23;99871.72;;;20.20;76.65
26087;BME280;13851;43.434;28.338;2023-02-19T09:56:49;99854.72;;;19.58;75.71
26087;BME280;13851;43.434;28.338;2023-02-19T09:59:28;99837.16;;;19.22;78.00
26087;BME280;13851;43.434;28.338;2023-02-19T10:02:00;99871.81;;;19.19;78.48
26087;BME280;13851;43.434;28.338;2023-02-19T10:04:27;99852.00;;;19.04;78.95
26087;BME280;13851;43.434;28.338;2023-02-19T10:06:53;99825.66;;;18.95;80.08
26087;BME280;13851;43.434;28.338;2023-02-19T10:09:24;99568.22;;;17.30;72.23
26087;BME280;13851;43.434;28.338;2023-02-19T10:11:53;99834.38;;;18.68;72.06
26087;BME280;13851;43.434;28.338;2023-02-19T10:14:50;99871.50;;;18.98;72.43
26087;BME280;13851;43.434;28.338;2023-02-19T10:17:23;99842.84;;;18.74;74.47
26087;BME280;13851;43.434;28.338;2023-02-19T10:19:50;99864.09;;;19.21;70.38
26087;BME280;13851;43.434;28.338;2023-02-19T10:22:16;99569.44;;;17.52;70.04
26087;BME280;13851;43.434;28.338;2023-02-19T10:24:43;99886.69;;;19.37;70.17
26087;BME280;13851;43.434;28.338;2023-02-19T10:27:13;99881.84;;;19.20;70.40
26087;BME280;13851;43.434;28.338;2023-02-19T10:29:41;99839.03;;;18.98;70.62
26087;BME280;13851;43.434;28.338;2023-02-19T10:32:17;99956.69;;;19.15;69.79
26087;BME280;13851;43.434;28.338;2023-02-19T10:34:45;99870.34;;;19.17;68.90
26087;BME280;13851;43.434;28.338;2023-02-19T10:37:14;99858.53;;;19.33;68.40
26087;BME280;13851;43.434;28.338;2023-02-19T10:39:46;99830.72;;;18.98;67.11
26087;BME280;13851;43.434;28.338;2023-02-19T10:42:18;99855.63;;;19.16;66.66
26087;BME280;13851;43.434;28.338;2023-02-19T10:44:48;99793.44;;;19.17;67.48
26087;BME280;13851;43.434;28.338;2023-02-19T10:47:20;99828.13;;;19.38;67.32
26087;BME280;13851;43.434;28.338;2023-02-19T10:49:47;99818.31;;;19.24;68.20
26087;BME280;13851;43.434;28.338;2023-02-19T10:52:19;99555.66;;;17.76;68.74
26087;BME280;13851;43.434;28.338;2023-02-19T10:57:55;99792.63;;;19.52;67.86
26087;BME280;13851;43.434;28.338;2023-02-19T11:00:26;99605.91;;;18.21;68.66
26087;BME280;13851;43.434;28.338;2023-02-19T11:03:18;99807.97;;;19.31;69.00
26087;BME280;13851;43.434;28.338;2023-02-19T11:06:00;99831.03;;;19.32;68.55
26087;BME280;13851;43.434;28.338;2023-02-19T11:08:27;99803.25;;;19.32;68.51
26087;BME280;13851;43.434;28.338;2023-02-19T11:10:53;99777.31;;;18.73;68.10
26087;BME280;13851;43.434;28.338;2023-02-19T11:13:29;99659.28;;;18.05;68.25
26087;BME280;13851;43.434;28.338;2023-02-19T11:15:57;99493.81;;;17.22;69.89
26087;BME280;13851;43.434;28.338;2023-02-19T11:18:28;99819.53;;;19.16;70.33
26087;BME280;13851;43.434;28.338;2023-02-19T11:20:56;99621.63;;;18.39;68.76
26087;BME280;13851;43.434;28.338;2023-02-19T11:23:29;99796.75;;;19.61;67.88
26087;BME280;13851;43.434;28.338;2023-02-19T11:25:58;99734.47;;;19.74;66.96
26087;BME280;13851;43.434;28.338;2023-02-19T11:28:36;99740.88;;;19.86;64.18
26087;BME280;13851;43.434;28.338;2023-02-19T11:31:24;99760.06;;;20.28;63.54
26087;BME280;13851;43.434;28.338;2023-02-19T11:37:07;99743.06;;;20.70;60.39
26087;BME280;13851;43.434;28.338;2023-02-19T11:39:33;99783.91;;;20.98;59.32
26087;BME280;13851;43.434;28.338;2023-02-19T11:50:46;99770.56;;;20.38;58.05
26087;BME280;13851;43.434;28.338;2023-02-19T11:53:32;99471.16;;;18.20;57.88
26087;BME280;13851;43.434;28.338;2023-02-19T11:56:22;99658.94;;;19.25;58.42
26087;BME280;13851;43.434;28.338;2023-02-19T12:13:09;99750.22;;;20.09;57.29
26087;BME280;13851;43.434;28.338;2023-02-19T12:23:56;99743.00;;;19.96;57.06
26087;BME280;13851;43.434;28.338;2023-02-19T12:36:59;99452.97;;;19.16;54.17
26087;BME280;13851;43.434;28.338;2023-02-19T12:51:23;99718.06;;;19.49;58.92
26087;BME280;13851;43.434;28.338;2023-02-19T12:54:00;99595.59;;;18.63;61.07
26087;BME280;13851;43.434;28.338;2023-02-19T12:56:34;99746.22;;;19.17;62.36
26087;BME280;13851;43.434;28.338;2023-02-19T12:59:06;99722.72;;;19.20;63.26
26087;BME280;13851;43.434;28.338;2023-02-19T13:01:45;99710.84;;;19.13;64.52
26087;BME280;13851;43.434;28.338;2023-02-19T13:04:41;99716.06;;;19.09;68.11
26087;BME280;13851;43.434;28.338;2023-02-19T13:12:35;99577.66;;;17.89;73.60
26087;BME280;13851;43.434;28.338;2023-02-19T13:15:12;99678.44;;;18.48;74.06
26087;BME280;13851;43.434;28.338;2023-02-19T13:17:56;99367.97;;;16.64;70.75
26087;BME280;13851;43.434;28.338;2023-02-19T13:20:28;99714.03;;;18.63;71.76
26087;BME280;13851;43.434;28.338;2023-02-19T13:31:38;99699.44;;;18.67;69.76
26087;BME280;13851;43.434;28.338;2023-02-19T13:34:32;99752.72;;;18.76;68.85
26087;BME280;13851;43.434;28.338;2023-02-19T13:37:03;99383.94;;;16.80;69.66
26087;BME280;13851;43.434;28.338;2023-02-19T13:39:29;99486.19;;;17.47;69.68
26087;BME280;13851;43.434;28.338;2023-02-19T13:41:56;99694.94;;;18.85;69.72
26087;BME280;13851;43.434;28.338;2023-02-19T13:44:32;99664.88;;;18.82;69.78
26087;BME280;13851;43.434;28.338;2023-02-19T13:46:58;99691.91;;;19.21;68.27
26087;BME280;13851;43.434;28.338;2023-02-19T13:49:38;99411.38;;;17.77;67.53
26087;BME280;13851;43.434;28.338;2023-02-19T14:03:52;99687.81;;;20.62;60.65
26087;BME280;13851;43.434;28.338;2023-02-19T14:06:18;99323.69;;;18.35;59.73
26087;BME280;13851;43.434;28.338;2023-02-19T14:08:57;99556.03;;;19.89;59.77
26087;BME280;13851;43.434;28.338;2023-02-19T14:14:35;99672.56;;;20.36;59.05
26087;BME280;13851;43.434;28.338;2023-02-19T14:19:55;99686.19;;;20.20;58.60
26087;BME280;13851;43.434;28.338;2023-02-19T14:31:06;99681.59;;;20.88;58.96
26087;BME280;13851;43.434;28.338;2023-02-19T14:33:35;99669.88;;;21.25;58.12
26087;BME280;13851;43.434;28.338;2023-02-19T14:38:32;99632.06;;;21.12;67.72
26087;BME280;13851;43.434;28.338;2023-02-19T14:41:00;99394.41;;;19.18;59.17
26087;BME280;13851;43.434;28.338;2023-02-19T14:43:27;99644.56;;;20.25;60.10
26087;BME280;13851;43.434;28.338;2023-02-19T14:46:03;99630.13;;;19.66;61.64
26087;BME280;13851;43.434;28.338;2023-02-19T14:48:42;99577.47;;;19.19;62.76
26087;BME280;13851;43.434;28.338;2023-02-19T14:51:20;99505.47;;;18.78;63.45
26087;BME280;13851;43.434;28.338;2023-02-19T14:53:49;99571.59;;;19.04;64.52
26087;BME280;13851;43.434;28.338;2023-02-19T14:56:22;99639.28;;;19.15;65.80
26087;BME280;13851;43.434;28.338;2023-02-19T15:01:37;99606.91;;;18.62;67.74
26087;BME280;13851;43.434;28.338;2023-02-19T15:04:03;99644.38;;;18.94;68.18
26087;BME280;13851;43.434;28.338;2023-02-19T15:06:33;99632.19;;;18.84;68.08
26087;BME280;13851;43.434;28.338;2023-02-19T15:09:05;99651.75;;;18.89;67.81